Virtual United States Air Force

 METAR AND TAF INFORMATION
METAR FOR KCHS
ADDS - METARS form results

(1206 UTC 30 September 2022)
Data provider http://aviationweather.gov/metar/data/
 
METAR text: KCHS 301156Z 35023G34KT 4SM +RA BR BKN010 OVC016 16/15 A2961 RMK AO2 PK WND 36035/1123 SLP025 P0059 60183 70193 T01560150 10156 20144 58020
Conditions at: KCHS (CHARLESTON , SC, US) observed 1156 UTC 30 September 2022
Temperature: 15.6°C (60°F)
Dewpoint: 15.0°C (59°F) [RH = 96%]
Pressure (altimeter): 29.61 inches Hg (1002.8 mb)
[Sea-level pressure: 1002.5 mb]
Winds: from the N (350 degrees) at 26 MPH (23 knots; 11.8 m/s)
gusting to 39 MPH (34 knots; 17.5 m/s)
Visibility: 4 miles ( 6 km)
Ceiling: 1000 feet AGL
Clouds: broken clouds at 1000 feet AGL
overcast cloud deck at 1600 feet AGL
Weather: +RA BR  (heavy rain, mist)

METAR text: KCHS 301150Z 35019G31KT 3SM RA BR BKN010 OVC016 16/15 A2961 RMK AO2 PK WND 36035/1123 P0057 T01560150
Conditions at: KCHS (CHARLESTON , SC, US) observed 1150 UTC 30 September 2022
Temperature: 15.6°C (60°F)
Dewpoint: 15.0°C (59°F) [RH = 96%]
Pressure (altimeter): 29.61 inches Hg (1002.8 mb)
Winds: from the N (350 degrees) at 22 MPH (19 knots; 9.8 m/s)
gusting to 36 MPH (31 knots; 15.9 m/s)
Visibility: 3 miles ( 5 km)
Ceiling: 1000 feet AGL
Clouds: broken clouds at 1000 feet AGL
overcast cloud deck at 1600 feet AGL
Weather: RA BR  (moderate rain, mist)

METAR text: KCHS 301147Z 35025G32KT 2 1/2SM +RA BR BKN009 OVC016 16/14 A2961 RMK AO2 PK WND 36035/1123 P0056 T01560144
Conditions at: KCHS (CHARLESTON , SC, US) observed 1147 UTC 30 September 2022
Temperature: 15.6°C (60°F)
Dewpoint: 14.4°C (58°F) [RH = 93%]
Pressure (altimeter): 29.61 inches Hg (1002.8 mb)
Winds: from the N (350 degrees) at 29 MPH (25 knots; 12.9 m/s)
gusting to 37 MPH (32 knots; 16.5 m/s)
Visibility: 2.50 miles (4.02 km)
Ceiling: 900 feet AGL
Clouds: broken clouds at 900 feet AGL
overcast cloud deck at 1600 feet AGL
Weather: +RA BR  (heavy rain, mist)

METAR text: KCHS 301134Z 36021G34KT 3SM +RA BR BKN009 OVC015 16/14 A2962 RMK AO2 PK WND 36035/1123 P0045 T01560144
Conditions at: KCHS (CHARLESTON , SC, US) observed 1134 UTC 30 September 2022
Temperature: 15.6°C (60°F)
Dewpoint: 14.4°C (58°F) [RH = 93%]
Pressure (altimeter): 29.62 inches Hg (1003.1 mb)
Winds: from the N (360 degrees) at 24 MPH (21 knots; 10.8 m/s)
gusting to 39 MPH (34 knots; 17.5 m/s)
Visibility: 3 miles ( 5 km)
Ceiling: 900 feet AGL
Clouds: broken clouds at 900 feet AGL
overcast cloud deck at 1500 feet AGL
Weather: +RA BR  (heavy rain, mist)

METAR text: KCHS 301121Z 35023G32KT 2SM +RA BR OVC010 16/14 A2962 RMK AO2 PK WND 01032/1114 PRESFR P0033 T01560144
Conditions at: KCHS (CHARLESTON , SC, US) observed 1121 UTC 30 September 2022
Temperature: 15.6°C (60°F)
Dewpoint: 14.4°C (58°F) [RH = 93%]
Pressure (altimeter): 29.62 inches Hg (1003.1 mb)
Winds: from the N (350 degrees) at 26 MPH (23 knots; 11.8 m/s)
gusting to 37 MPH (32 knots; 16.5 m/s)
Visibility: 2.00 miles (3.22 km)
Ceiling: 1000 feet AGL
Clouds: overcast cloud deck at 1000 feet AGL
Weather: +RA BR  (heavy rain, mist)

METAR text: KCHS 301112Z 35021G30KT 1 1/2SM R15/5500VP6000FT +RA BR OVC010 15/14 A2963 RMK AO2 PK WND 35030/1101 P0021 T01500144
Conditions at: KCHS (CHARLESTON , SC, US) observed 1112 UTC 30 September 2022
Temperature: 15.0°C (59°F)
Dewpoint: 14.4°C (58°F) [RH = 96%]
Pressure (altimeter): 29.63 inches Hg (1003.5 mb)
Winds: from the N (350 degrees) at 24 MPH (21 knots; 10.8 m/s)
gusting to 34 MPH (30 knots; 15.4 m/s)
Visibility: 1.50 miles (2.41 km)
Ceiling: 1000 feet AGL
Clouds: overcast cloud deck at 1000 feet AGL
Weather: +RA BR  (heavy rain, mist)

Forecast for: KCHS (CHARLESTON , SC, US)
Text: KCHS 301140Z 3012/0112 01035G45KT 3SM +RA BR OVC009
Forecast period: 1200 UTC 30 September 2022 to 0000 UTC 01 October 2022
Forecast type: FROM: standard forecast or significant change
Winds: from the N (10 degrees) at 40 MPH (35 knots; 18.0 m/s)
gusting to 52 MPH (45 knots; 23.1 m/s)
Visibility: 3 miles (5 km)
Ceiling: 900 feet AGL
Clouds: overcast cloud deck at 900 feet AGL
Weather: +RA BR  (heavy rain, mist)
Text: TEMPO 3017/3021 36045G60KT
Forecast period: 1700 to 2100 UTC 30 September 2022
Forecast type: TEMPORARY: The following changes expected for less than half the time period
Winds: from the N (360 degrees) at 52 MPH (45 knots; 23.1 m/s)
gusting to 69 MPH (60 knots; 30.9 m/s)
Visibility: missing
Ceiling: unknown
Clouds: missing
Weather: no significant weather forecast for this period
Text: FM010000 26020G30KT 6SM -SHRA OVC020
Forecast period: 0000 to 0400 UTC 01 October 2022
Forecast type: FROM: standard forecast or significant change
Winds: from the W (260 degrees) at 23 MPH (20 knots; 10.3 m/s)
gusting to 34 MPH (30 knots; 15.4 m/s)
Visibility: 6 miles (10 km)
Ceiling: 2000 feet AGL
Clouds: overcast cloud deck at 2000 feet AGL
Weather: -SHRA  (light rain showers)
Text: FM010400 25010KT P6SM BKN035
Forecast period: 0400 to 1200 UTC 01 October 2022
Forecast type: FROM: standard forecast or significant change
Winds: from the WSW (250 degrees) at 12 MPH (10 knots; 5.1 m/s)
Visibility: 6 or more miles (10+ km)
Ceiling: 3500 feet AGL
Clouds: broken clouds at 3500 feet AGL
Weather: no significant weather forecast for this period

 AIRPORT MAP

 RUNWAY INFORMATION
Runway 03 Runway length 7004 ft Runway width 150 ft
Runway elevation 21 ft Runway displaced threshold 0 ft Runway heading 24
Runway 21 Runway length 7004 ft Runway width 150 ft
Runway elevation 41 ft Runway displaced threshold 0 ft Runway heading 204
Runway 15 Runway length 9001 ft Runway width 200 ft
Runway elevation 43 ft Runway displaced threshold 0 ft Runway heading 147
Runway 33 Runway length 9001 ft Runway width 200 ft
Runway elevation 39 ft Runway displaced threshold 0 ft Runway heading 327

 AIRPORT FREQUENCIES
Type APP Name APP Frequency 30.692 MHZ
Type APP Name APP Frequency 119.3 MHZ
Type ATIS Name ATIS Frequency 124.75 MHZ
Type CLD Name CLNC DEL Frequency 118 MHZ
Type DEP Name DEP Frequency 120.7 MHZ
Type GND Name GND Frequency 121.9 MHZ
Type PMSV Name PMSV METR Frequency 34.46 MHZ
Type POST Name CONSOLIDAT Frequency 134.1 MHZ
Type PTD Name PTD Frequency 37.22 MHZ
Type RDO Name ANDERSON R Frequency 122.2 MHZ
Type TWR Name TWR Frequency 126 MHZ
Type UNIC Name UNICOM Frequency 122.95 MHZ

 AIRPORT NEAR NAVIGATION AIDS


Neither the Department of the Air Force, nor any other component of the Department of Defense or Federal Government has approved, endorsed, or authorized this promotion, activity, or organization. Virtual United States Air Force organization is in no way affiliated with the Department of Defense, Department of the Air Force, or any other federal or government entity. Virtual United States Air Force is a group of flight simulation enthusiasts with the common interest of promoting enjoyment and cameraderie through the simulation of military operations and procedures utilizing several flight simulation platforms.

Copyright © vUSAF, LLC // 2018-2022 All Rights Reserved